createdAt,value
2018-07-23T17:55:09.942Z,26.4
2018-07-23T17:56:06.568Z,26.4
2018-07-23T17:57:11.876Z,26.4
2018-07-23T17:58:18.013Z,26.4
2018-07-23T17:59:18.974Z,26.5
2018-07-23T18:00:23.547Z,26.5
2018-07-23T18:01:32.939Z,26.5
2018-07-23T18:02:33.544Z,26.5
2018-07-23T18:03:35.968Z,26.5
2018-07-23T18:04:41.187Z,26.5
2018-07-23T18:05:42.353Z,26.6
2018-07-23T18:06:41.363Z,26.6
2018-07-23T18:07:55.597Z,26.6
2018-07-23T18:08:47.667Z,26.6
2018-07-23T18:09:46.336Z,26.7
2018-07-23T18:10:47.937Z,26.7
2018-07-23T18:11:45.674Z,26.7
2018-07-23T18:12:45.397Z,26.7
2018-07-23T18:13:45.004Z,26.7
2018-07-23T18:14:50.512Z,26.7
2018-07-23T18:15:47.128Z,26.8
2018-07-23T18:16:47.090Z,26.8
2018-07-23T18:17:50.347Z,26.8
2018-07-23T18:18:46.639Z,26.8
2018-07-23T18:19:45.655Z,26.8
2018-07-23T18:20:51.132Z,26.8
2018-07-23T18:22:05.002Z,26.9
2018-07-23T18:23:03.305Z,26.9
2018-07-23T18:24:01.198Z,26.9
2018-07-23T18:25:01.438Z,26.9
2018-07-23T18:25:57.758Z,26.9
2018-07-23T18:26:55.365Z,26.9
2018-07-23T18:28:02.271Z,26.9
2018-07-23T18:29:02.070Z,27
2018-07-23T18:30:04.340Z,27
2018-07-23T18:31:11.695Z,27
2018-07-23T18:32:12.893Z,27
2018-07-23T18:33:11.682Z,27
2018-07-23T18:34:06.149Z,27
2018-07-23T18:35:20.334Z,27
2018-07-23T18:36:14.326Z,27
2018-07-23T18:37:13.369Z,27
2018-07-23T18:38:12.221Z,27
2018-07-23T18:39:15.503Z,27
2018-07-23T18:40:23.020Z,27
2018-07-23T18:41:23.651Z,27
2018-07-23T18:42:22.950Z,27
2018-07-23T18:43:24.109Z,27.1
2018-07-23T18:44:21.638Z,27.1
2018-07-23T18:45:27.196Z,27.1
2018-07-23T18:46:22.784Z,27.1
2018-07-23T18:47:20.384Z,27.1
2018-07-23T18:48:23.970Z,27.1
2018-07-23T18:49:21.401Z,27.1
2018-07-23T18:50:19.471Z,27.1
2018-07-23T18:51:18.863Z,27.1
2018-07-23T18:52:29.185Z,27.1
2018-07-23T18:53:29.302Z,27.1
2018-07-23T18:54:27.163Z,27.1
2018-07-23T18:55:26.957Z,27.1
2018-07-23T18:56:24.917Z,27.1
2018-07-23T18:57:25.834Z,27.1
2018-07-23T18:58:27.730Z,27.1
2018-07-23T18:59:30.266Z,27.1
2018-07-23T19:00:28.939Z,27.1
2018-07-23T19:01:28.773Z,27.1
2018-07-23T19:02:39.899Z,27.1
2018-07-23T19:03:40.156Z,27.1
2018-07-23T19:04:37.957Z,27.1
2018-07-23T19:05:37.855Z,27.1
2018-07-23T19:06:33.378Z,27.1
2018-07-23T19:07:37.457Z,27.1
2018-07-23T19:08:41.919Z,27.1
2018-07-23T19:09:41.652Z,27.1
2018-07-23T19:10:40.483Z,27.1
2018-07-23T19:11:45.858Z,27.1
2018-07-23T19:12:41.364Z,27.1
2018-07-23T19:13:43.928Z,27.1
2018-07-23T19:14:43.287Z,27.1
2018-07-23T19:15:38.722Z,27.1
2018-07-23T19:16:44.036Z,27.2
2018-07-23T19:17:41.606Z,27.2
2018-07-23T19:18:55.706Z,27.2
2018-07-23T19:20:00.109Z,27.2
2018-07-23T19:21:02.739Z,27.1
2018-07-23T19:21:57.880Z,27.1
2018-07-23T19:23:02.216Z,27.2
2018-07-23T19:24:18.681Z,27.2
2018-07-23T19:25:19.301Z,27.2
2018-07-23T19:26:15.313Z,27.1
2018-07-23T19:27:13.532Z,27.2
2018-07-23T19:28:11.195Z,27.2
2018-07-23T19:29:09.215Z,27.2
2018-07-23T19:30:07.707Z,27.2
2018-07-23T19:31:11.064Z,27.2
2018-07-23T19:32:14.744Z,27.2
2018-07-23T19:33:37.225Z,27.2
2018-07-23T19:34:36.261Z,27.2
2018-07-23T19:35:35.249Z,27.2
2018-07-23T19:36:39.239Z,27.2
2018-07-23T19:37:37.317Z,27.2
2018-07-23T19:38:35.683Z,27.2
2018-07-23T19:39:35.831Z,27.2
2018-07-23T19:40:40.209Z,27.2
2018-07-23T19:41:43.005Z,27.2
2018-07-23T19:42:39.668Z,27.2
2018-07-23T19:43:53.154Z,27.2
2018-07-23T19:44:48.877Z,27.2
2018-07-23T19:45:54.954Z,27.2
2018-07-23T19:46:53.180Z,27.2
2018-07-23T19:47:52.577Z,27.2
2018-07-23T19:48:56.972Z,27.2
2018-07-23T19:50:04.307Z,27.2
2018-07-23T19:51:07.081Z,27.2
2018-07-23T19:52:07.473Z,27.2
2018-07-23T19:53:09.035Z,27.2
2018-07-23T19:54:12.972Z,27.2
2018-07-23T19:55:11.280Z,27.2
2018-07-23T19:56:11.423Z,27.2
2018-07-23T19:57:11.984Z,27.2
2018-07-23T19:58:10.461Z,27.2
2018-07-23T19:59:12.239Z,27.3
2018-07-23T20:00:30.209Z,27.2
2018-07-23T20:01:26.003Z,27.2
2018-07-23T20:02:32.106Z,27.2
2018-07-23T20:03:29.830Z,27.2
2018-07-23T20:04:25.218Z,27.3
2018-07-23T20:05:30.298Z,27.2
2018-07-23T20:06:34.959Z,27.2
2018-07-23T20:07:31.255Z,27.2
2018-07-23T20:08:42.771Z,27.2
2018-07-23T20:09:43.575Z,27.1
2018-07-23T20:10:43.413Z,27
2018-07-23T20:11:44.440Z,27
2018-07-23T20:12:42.955Z,26.9
2018-07-23T20:13:45.914Z,26.9
2018-07-23T20:15:05.758Z,26.9
2018-07-23T20:16:07.154Z,26.9
2018-07-23T20:17:11.039Z,26.9
2018-07-23T20:18:13.128Z,26.9
2018-07-23T20:19:08.481Z,26.9
2018-07-23T20:20:11.865Z,26.9
2018-07-23T20:21:09.213Z,26.9
2018-07-23T20:22:09.113Z,26.9
2018-07-23T20:23:16.393Z,26.9
2018-07-23T20:24:17.554Z,26.9
2018-07-23T20:25:17.198Z,26.9
2018-07-23T20:26:15.175Z,26.9
2018-07-23T20:27:28.254Z,26.9
2018-07-23T20:28:24.273Z,27
2018-07-23T20:29:22.803Z,27
2018-07-23T20:30:28.209Z,27
2018-07-23T20:31:29.212Z,27
2018-07-23T20:32:32.104Z,27
2018-07-23T20:33:34.519Z,27
2018-07-23T20:34:33.038Z,27
2018-07-23T20:35:34.111Z,27
2018-07-23T20:36:39.015Z,27
2018-07-23T20:37:42.976Z,27
2018-07-23T20:38:42.912Z,27
2018-07-23T20:39:47.258Z,27
2018-07-23T20:40:50.396Z,27.1
2018-07-23T20:41:46.368Z,27.1
2018-07-23T20:42:57.912Z,27.1
2018-07-23T20:43:53.016Z,27.1
2018-07-23T20:44:51.494Z,27.1
2018-07-23T20:45:54.732Z,27.1
2018-07-23T20:46:49.450Z,27.1
2018-07-23T20:47:47.509Z,27.1
2018-07-23T20:48:47.135Z,27.1
2018-07-23T20:49:55.522Z,27.1
2018-07-23T20:50:59.004Z,27.1
2018-07-23T20:52:01.581Z,27.1
2018-07-23T20:53:06.656Z,27.1
2018-07-23T20:54:07.416Z,27.1
2018-07-23T20:55:05.403Z,27.1
2018-07-23T20:56:04.446Z,27.1
2018-07-23T20:57:04.155Z,27.1
2018-07-23T20:58:02.646Z,27.1
2018-07-23T20:59:17.509Z,27.1
2018-07-23T21:00:14.393Z,27.1
2018-07-23T21:01:27.084Z,27.1
2018-07-23T21:02:27.667Z,27.1
2018-07-23T21:03:25.660Z,27.1
2018-07-23T21:04:26.771Z,27.1
2018-07-23T21:05:21.839Z,27.1
2018-07-23T21:06:24.582Z,27.1
2018-07-23T21:07:25.478Z,27.1
2018-07-23T21:08:22.798Z,27.1
2018-07-23T21:09:20.310Z,27.1
2018-07-23T21:10:21.393Z,27.1
2018-07-23T21:11:33.398Z,27.1
2018-07-23T21:12:28.121Z,27.1
2018-07-23T21:13:23.188Z,27.1
2018-07-23T21:14:26.836Z,27.1
2018-07-23T21:15:25.641Z,27.1
2018-07-23T21:16:24.514Z,27
2018-07-23T21:17:23.587Z,27
2018-07-23T21:18:24.390Z,27
2018-07-23T21:19:28.193Z,27
2018-07-23T21:20:24.734Z,27
2018-07-23T21:21:24.634Z,27
2018-07-23T21:22:26.030Z,27
2018-07-23T21:23:23.974Z,27
2018-07-23T21:24:19.088Z,27
2018-07-23T21:25:47.214Z,27
2018-07-23T21:26:34.289Z,27
2018-07-23T21:27:32.962Z,27
2018-07-23T21:28:35.880Z,27
2018-07-23T21:29:38.764Z,27
2018-07-23T21:30:55.088Z,27
2018-07-23T21:31:53.912Z,27
2018-07-23T21:33:05.310Z,27
2018-07-23T21:34:07.514Z,26.9
2018-07-23T21:35:04.003Z,27
2018-07-23T21:36:16.484Z,27
2018-07-23T21:37:12.254Z,26.9
2018-07-23T21:38:08.604Z,26.9
2018-07-23T21:39:10.394Z,27
2018-07-23T21:40:08.762Z,27
2018-07-23T21:41:14.040Z,27
2018-07-23T21:42:13.011Z,27
2018-07-23T21:43:16.244Z,26.9
2018-07-23T21:44:14.842Z,26.9
2018-07-23T21:45:15.757Z,26.9
2018-07-23T21:46:13.297Z,26.9
2018-07-23T21:47:11.342Z,26.9
2018-07-23T21:48:09.753Z,26.9
2018-07-23T21:49:08.587Z,26.9
2018-07-23T21:50:07.687Z,26.9
2018-07-23T21:51:19.571Z,26.9
2018-07-23T21:52:25.165Z,26.9
2018-07-23T21:53:26.278Z,26.9
2018-07-23T21:54:28.704Z,26.9
2018-07-23T21:55:26.426Z,26.9
2018-07-23T21:56:24.026Z,26.9
2018-07-23T21:57:25.346Z,26.9
2018-07-23T21:58:20.519Z,26.9
2018-07-23T21:59:18.063Z,26.9
2018-07-23T22:00:18.178Z,26.9
2018-07-23T22:01:19.461Z,26.9
2018-07-23T22:02:20.632Z,26.9
2018-07-23T22:03:17.639Z,26.9
2018-07-23T22:04:20.421Z,26.9
2018-07-23T22:05:16.719Z,26.8
2018-07-23T22:06:32.384Z,26.8
2018-07-23T22:07:35.097Z,26.8
2018-07-23T22:08:37.424Z,26.8
2018-07-23T22:09:32.748Z,26.8
2018-07-23T22:10:34.158Z,26.8
2018-07-23T22:11:30.656Z,26.8
2018-07-23T22:12:33.172Z,26.8
2018-07-23T22:13:31.964Z,26.8
2018-07-23T22:14:46.516Z,26.8
2018-07-23T22:15:46.237Z,26.8
2018-07-23T22:16:45.166Z,26.8
2018-07-23T22:17:47.038Z,26.8
2018-07-23T22:18:44.653Z,26.8
2018-07-23T22:19:43.335Z,26.8
2018-07-23T22:20:44.619Z,26.8
2018-07-23T22:21:49.375Z,26.8
2018-07-23T22:22:47.394Z,26.8
2018-07-23T22:23:47.412Z,26.7
2018-07-23T22:24:45.837Z,26.8
2018-07-23T22:25:43.281Z,26.7
2018-07-23T22:27:04.480Z,26.7
2018-07-23T22:27:59.480Z,26.7
2018-07-23T22:28:58.325Z,26.7
2018-07-23T22:29:56.854Z,26.7
2018-07-23T22:30:58.287Z,26.7
2018-07-23T22:31:57.999Z,26.7
2018-07-23T22:32:59.049Z,26.7
2018-07-23T22:33:55.658Z,26.7
2018-07-23T22:34:56.688Z,26.7
2018-07-23T22:35:57.758Z,26.7
2018-07-23T22:36:58.806Z,26.7
2018-07-23T22:37:58.896Z,26.7
2018-07-23T22:38:58.516Z,26.7
2018-07-23T22:39:53.914Z,26.7
2018-07-23T22:41:07.375Z,26.7
2018-07-23T22:42:18.412Z,26.7
2018-07-23T22:43:16.748Z,26.7
2018-07-23T22:44:16.307Z,26.7
2018-07-23T22:45:15.630Z,26.6
2018-07-23T22:46:18.719Z,26.6
2018-07-23T22:47:20.717Z,26.7
2018-07-23T22:48:17.230Z,26.6
2018-07-23T22:49:20.275Z,26.7
2018-07-23T22:50:23.694Z,26.6
2018-07-23T22:51:20.090Z,26.7
2018-07-23T22:52:23.308Z,26.6
2018-07-23T22:53:23.313Z,26.6
2018-07-23T22:54:35.689Z,26.6
2018-07-23T22:55:31.713Z,26.6
2018-07-23T22:56:30.577Z,26.6
2018-07-23T22:57:25.461Z,26.6
2018-07-23T22:58:23.646Z,26.6
2018-07-23T22:59:25.972Z,26.6
2018-07-23T23:00:33.518Z,26.6
2018-07-23T23:01:34.064Z,26.6
2018-07-23T23:02:35.068Z,26.6
2018-07-23T23:03:31.627Z,26.6
2018-07-23T23:04:29.490Z,26.6
2018-07-23T23:05:32.942Z,26.6
2018-07-23T23:06:50.966Z,26.6
2018-07-23T23:07:47.552Z,26.6
2018-07-23T23:08:48.517Z,26.5
2018-07-23T23:09:50.899Z,26.5
2018-07-23T23:10:46.346Z,26.6
2018-07-23T23:11:45.083Z,26.5
2018-07-23T23:12:43.166Z,26.6
2018-07-23T23:13:46.240Z,26.5
2018-07-23T23:14:46.975Z,26.5
2018-07-23T23:15:48.245Z,26.5
2018-07-23T23:16:46.056Z,26.5
2018-07-23T23:17:42.618Z,26.5
2018-07-23T23:19:01.521Z,26.5
2018-07-23T23:19:56.268Z,26.5
2018-07-23T23:20:53.584Z,26.5
2018-07-23T23:21:56.165Z,26.5
2018-07-23T23:23:03.280Z,26.5
2018-07-23T23:24:01.501Z,26.5
2018-07-23T23:25:01.098Z,26.5
2018-07-23T23:25:58.473Z,26.5
2018-07-23T23:27:02.628Z,26.5
2018-07-23T23:28:03.043Z,26.5
2018-07-23T23:29:02.593Z,26.5
2018-07-23T23:30:06.797Z,26.4
2018-07-23T23:31:07.376Z,26.5
2018-07-23T23:32:23.803Z,26.5
2018-07-23T23:33:15.455Z,26.5
2018-07-23T23:34:16.878Z,26.5
2018-07-23T23:35:17.430Z,26.4
2018-07-23T23:36:19.418Z,26.4
2018-07-23T23:37:17.317Z,26.4
2018-07-23T23:38:17.101Z,26.4
2018-07-23T23:39:18.065Z,26.4
2018-07-23T23:40:24.249Z,26.4
2018-07-23T23:41:30.278Z,26.4
2018-07-23T23:42:27.871Z,26.4
2018-07-23T23:43:29.614Z,26.4
2018-07-23T23:44:27.393Z,26.4
2018-07-23T23:45:28.766Z,26.4
2018-07-23T23:46:26.818Z,26.4
2018-07-23T23:47:26.362Z,26.4
2018-07-23T23:48:38.296Z,26.4
2018-07-23T23:49:32.389Z,26.4
2018-07-23T23:50:31.284Z,26.4
2018-07-23T23:51:38.244Z,26.4
2018-07-23T23:52:34.523Z,26.4
2018-07-23T23:53:34.378Z,26.4
2018-07-23T23:54:34.243Z,26.4
2018-07-23T23:55:36.109Z,26.4
2018-07-23T23:56:36.685Z,26.4
2018-07-23T23:57:34.633Z,26.4
2018-07-23T23:58:30.645Z,26.4
2018-07-23T23:59:35.303Z,26.4
